sensor_id;sensor_type;location;lat;lon;timestamp;P1;durP1;ratioP1;P2;durP2;ratioP2
40150;SDS011;25866;52.420;10.640;2023-02-15T00:01:39;24.20;;;14.30;;
40150;SDS011;25866;52.420;10.640;2023-02-15T00:04:05;19.43;;;14.57;;
40150;SDS011;25866;52.420;10.640;2023-02-15T00:06:32;31.63;;;14.90;;
40150;SDS011;25866;52.420;10.640;2023-02-15T00:08:58;26.77;;;14.13;;
40150;SDS011;25866;52.420;10.640;2023-02-15T00:11:24;27.97;;;13.60;;
40150;SDS011;25866;52.420;10.640;2023-02-15T00:14:19;24.90;;;13.07;;
40150;SDS011;25866;52.420;10.640;2023-02-15T00:16:47;16.47;;;12.30;;
40150;SDS011;25866;52.420;10.640;2023-02-15T00:19:15;17.43;;;13.03;;
40150;SDS011;25866;52.420;10.640;2023-02-15T00:21:42;16.13;;;12.97;;
40150;SDS011;25866;52.420;10.640;2023-02-15T00:24:09;16.27;;;12.27;;
40150;SDS011;25866;52.420;10.640;2023-02-15T00:26:37;17.30;;;13.33;;
40150;SDS011;25866;52.420;10.640;2023-02-15T00:29:04;29.47;;;13.93;;
40150;SDS011;25866;52.420;10.640;2023-02-15T00:31:31;23.63;;;13.67;;
40150;SDS011;25866;52.420;10.640;2023-02-15T00:34:18;43.97;;;14.53;;
40150;SDS011;25866;52.420;10.640;2023-02-15T00:36:46;19.97;;;14.00;;
40150;SDS011;25866;52.420;10.640;2023-02-15T00:39:12;19.13;;;14.53;;
40150;SDS011;25866;52.420;10.640;2023-02-15T00:41:38;18.57;;;14.27;;
40150;SDS011;25866;52.420;10.640;2023-02-15T00:44:04;36.53;;;14.80;;
40150;SDS011;25866;52.420;10.640;2023-02-15T00:46:30;20.43;;;13.83;;
40150;SDS011;25866;52.420;10.640;2023-02-15T00:48:56;25.37;;;14.93;;
40150;SDS011;25866;52.420;10.640;2023-02-15T00:51:22;28.90;;;14.40;;
40150;SDS011;25866;52.420;10.640;2023-02-15T00:53:48;20.30;;;13.97;;
40150;SDS011;25866;52.420;10.640;2023-02-15T00:58:49;23.57;;;14.07;;
40150;SDS011;25866;52.420;10.640;2023-02-15T01:01:16;20.97;;;14.90;;
40150;SDS011;25866;52.420;10.640;2023-02-15T01:03:43;20.33;;;14.67;;
40150;SDS011;25866;52.420;10.640;2023-02-15T01:06:11;22.70;;;14.90;;
40150;SDS011;25866;52.420;10.640;2023-02-15T01:08:38;21.33;;;14.63;;
40150;SDS011;25866;52.420;10.640;2023-02-15T01:11:05;21.23;;;15.03;;
40150;SDS011;25866;52.420;10.640;2023-02-15T01:13:32;19.73;;;14.70;;
40150;SDS011;25866;52.420;10.640;2023-02-15T01:15:58;21.63;;;15.40;;
40150;SDS011;25866;52.420;10.640;2023-02-15T01:18:24;19.17;;;13.50;;
40150;SDS011;25866;52.420;10.640;2023-02-15T01:20:50;21.97;;;15.13;;
40150;SDS011;25866;52.420;10.640;2023-02-15T01:23:15;22.00;;;14.97;;
40150;SDS011;25866;52.420;10.640;2023-02-15T01:25:41;20.00;;;14.33;;
40150;SDS011;25866;52.420;10.640;2023-02-15T01:28:07;19.60;;;14.30;;
40150;SDS011;25866;52.420;10.640;2023-02-15T01:30:33;20.80;;;14.10;;
40150;SDS011;25866;52.420;10.640;2023-02-15T01:32:59;20.97;;;14.43;;
40150;SDS011;25866;52.420;10.640;2023-02-15T01:35:26;20.63;;;14.33;;
40150;SDS011;25866;52.420;10.640;2023-02-15T01:37:52;23.83;;;15.63;;
40150;SDS011;25866;52.420;10.640;2023-02-15T01:40:18;22.57;;;14.70;;
40150;SDS011;25866;52.420;10.640;2023-02-15T01:42:44;22.27;;;14.43;;
40150;SDS011;25866;52.420;10.640;2023-02-15T01:45:26;23.60;;;15.63;;
40150;SDS011;25866;52.420;10.640;2023-02-15T01:50:57;18.30;;;12.93;;
40150;SDS011;25866;52.420;10.640;2023-02-15T01:53:31;19.43;;;13.40;;
40150;SDS011;25866;52.420;10.640;2023-02-15T01:56:29;17.93;;;13.23;;
40150;SDS011;25866;52.420;10.640;2023-02-15T01:58:56;18.33;;;12.70;;
40150;SDS011;25866;52.420;10.640;2023-02-15T02:01:25;20.10;;;14.03;;
40150;SDS011;25866;52.420;10.640;2023-02-15T02:03:56;20.07;;;14.33;;
40150;SDS011;25866;52.420;10.640;2023-02-15T02:06:29;18.07;;;13.97;;
40150;SDS011;25866;52.420;10.640;2023-02-15T02:08:57;22.23;;;14.57;;
40150;SDS011;25866;52.420;10.640;2023-02-15T02:11:23;20.30;;;14.00;;
40150;SDS011;25866;52.420;10.640;2023-02-15T02:13:49;17.47;;;13.57;;
40150;SDS011;25866;52.420;10.640;2023-02-15T02:16:20;20.30;;;14.57;;
40150;SDS011;25866;52.420;10.640;2023-02-15T02:28:02;19.67;;;13.57;;
40150;SDS011;25866;52.420;10.640;2023-02-15T02:41:18;20.40;;;13.77;;
40150;SDS011;25866;52.420;10.640;2023-02-15T02:43:55;39.37;;;14.93;;
40150;SDS011;25866;52.420;10.640;2023-02-15T02:49:40;28.50;;;15.53;;
40150;SDS011;25866;52.420;10.640;2023-02-15T02:52:34;39.93;;;16.07;;
40150;SDS011;25866;52.420;10.640;2023-02-15T02:55:01;41.37;;;14.60;;
40150;SDS011;25866;52.420;10.640;2023-02-15T02:57:30;34.77;;;15.67;;
40150;SDS011;25866;52.420;10.640;2023-02-15T02:59:58;24.07;;;16.00;;
40150;SDS011;25866;52.420;10.640;2023-02-15T03:02:28;45.20;;;16.57;;
40150;SDS011;25866;52.420;10.640;2023-02-15T03:05:04;30.60;;;15.90;;
40150;SDS011;25866;52.420;10.640;2023-02-15T03:07:34;30.37;;;14.57;;
40150;SDS011;25866;52.420;10.640;2023-02-15T03:10:01;46.10;;;16.13;;
40150;SDS011;25866;52.420;10.640;2023-02-15T03:12:34;27.83;;;15.20;;
40150;SDS011;25866;52.420;10.640;2023-02-15T03:15:37;36.07;;;16.07;;
40150;SDS011;25866;52.420;10.640;2023-02-15T03:18:20;39.00;;;15.90;;
40150;SDS011;25866;52.420;10.640;2023-02-15T03:20:51;32.43;;;16.50;;
40150;SDS011;25866;52.420;10.640;2023-02-15T03:23:20;41.77;;;16.83;;
40150;SDS011;25866;52.420;10.640;2023-02-15T03:25:49;74.37;;;15.53;;
40150;SDS011;25866;52.420;10.640;2023-02-15T03:28:40;40.27;;;14.87;;
40150;SDS011;25866;52.420;10.640;2023-02-15T03:31:07;33.87;;;13.03;;
40150;SDS011;25866;52.420;10.640;2023-02-15T03:33:35;33.40;;;14.77;;
40150;SDS011;25866;52.420;10.640;2023-02-15T03:36:10;32.07;;;14.93;;
40150;SDS011;25866;52.420;10.640;2023-02-15T03:41:58;44.20;;;15.63;;
40150;SDS011;25866;52.420;10.640;2023-02-15T03:44:46;21.53;;;14.63;;
40150;SDS011;25866;52.420;10.640;2023-02-15T03:47:20;22.43;;;14.50;;
40150;SDS011;25866;52.420;10.640;2023-02-15T03:49:55;24.73;;;13.97;;
40150;SDS011;25866;52.420;10.640;2023-02-15T03:52:52;24.60;;;15.43;;
40150;SDS011;25866;52.420;10.640;2023-02-15T03:55:19;24.63;;;15.40;;
40150;SDS011;25866;52.420;10.640;2023-02-15T03:57:45;23.37;;;14.73;;
40150;SDS011;25866;52.420;10.640;2023-02-15T04:00:30;31.40;;;15.67;;
40150;SDS011;25866;52.420;10.640;2023-02-15T04:03:32;25.30;;;14.80;;
40150;SDS011;25866;52.420;10.640;2023-02-15T04:06:04;25.67;;;15.90;;
40150;SDS011;25866;52.420;10.640;2023-02-15T04:08:30;24.23;;;14.70;;
40150;SDS011;25866;52.420;10.640;2023-02-15T04:11:14;27.30;;;15.30;;
40150;SDS011;25866;52.420;10.640;2023-02-15T04:13:41;46.83;;;14.30;;
40150;SDS011;25866;52.420;10.640;2023-02-15T04:16:07;23.57;;;13.33;;
40150;SDS011;25866;52.420;10.640;2023-02-15T04:18:37;27.13;;;14.77;;
40150;SDS011;25866;52.420;10.640;2023-02-15T04:21:27;23.53;;;13.23;;
40150;SDS011;25866;52.420;10.640;2023-02-15T04:24:13;23.07;;;12.33;;
40150;SDS011;25866;52.420;10.640;2023-02-15T04:26:58;19.73;;;12.83;;
40150;SDS011;25866;52.420;10.640;2023-02-15T04:29:25;20.33;;;13.47;;
40150;SDS011;25866;52.420;10.640;2023-02-15T04:31:52;17.57;;;12.93;;
40150;SDS011;25866;52.420;10.640;2023-02-15T04:34:19;18.27;;;12.57;;
40150;SDS011;25866;52.420;10.640;2023-02-15T04:36:45;27.27;;;11.53;;
40150;SDS011;25866;52.420;10.640;2023-02-15T04:39:14;20.83;;;12.40;;
40150;SDS011;25866;52.420;10.640;2023-02-15T04:41:41;18.43;;;12.60;;
40150;SDS011;25866;52.420;10.640;2023-02-15T04:44:07;18.47;;;12.33;;
40150;SDS011;25866;52.420;10.640;2023-02-15T04:46:33;17.77;;;12.53;;
40150;SDS011;25866;52.420;10.640;2023-02-15T04:48:58;19.17;;;13.00;;
40150;SDS011;25866;52.420;10.640;2023-02-15T04:51:24;18.97;;;12.97;;
40150;SDS011;25866;52.420;10.640;2023-02-15T04:53:50;16.80;;;12.17;;
40150;SDS011;25866;52.420;10.640;2023-02-15T04:56:17;18.27;;;12.93;;
40150;SDS011;25866;52.420;10.640;2023-02-15T04:58:44;16.83;;;12.03;;
40150;SDS011;25866;52.420;10.640;2023-02-15T05:01:10;18.93;;;12.20;;
40150;SDS011;25866;52.420;10.640;2023-02-15T05:03:36;18.70;;;12.83;;
40150;SDS011;25866;52.420;10.640;2023-02-15T05:06:02;16.13;;;11.07;;
40150;SDS011;25866;52.420;10.640;2023-02-15T05:08:29;17.80;;;11.83;;
40150;SDS011;25866;52.420;10.640;2023-02-15T05:10:55;16.00;;;11.93;;
40150;SDS011;25866;52.420;10.640;2023-02-15T05:13:21;15.17;;;10.80;;
40150;SDS011;25866;52.420;10.640;2023-02-15T05:15:48;15.97;;;11.17;;
40150;SDS011;25866;52.420;10.640;2023-02-15T05:18:15;14.87;;;10.57;;
40150;SDS011;25866;52.420;10.640;2023-02-15T05:20:41;16.90;;;11.73;;
40150;SDS011;25866;52.420;10.640;2023-02-15T05:23:07;18.00;;;12.30;;
40150;SDS011;25866;52.420;10.640;2023-02-15T05:25:33;20.57;;;12.57;;
40150;SDS011;25866;52.420;10.640;2023-02-15T05:28:17;20.17;;;11.73;;
40150;SDS011;25866;52.420;10.640;2023-02-15T05:30:49;18.50;;;12.00;;
40150;SDS011;25866;52.420;10.640;2023-02-15T05:33:21;17.57;;;10.67;;
40150;SDS011;25866;52.420;10.640;2023-02-15T05:35:47;16.50;;;11.27;;
40150;SDS011;25866;52.420;10.640;2023-02-15T05:38:13;16.33;;;11.43;;
40150;SDS011;25866;52.420;10.640;2023-02-15T05:40:38;18.70;;;12.30;;
40150;SDS011;25866;52.420;10.640;2023-02-15T05:43:04;20.90;;;11.97;;
40150;SDS011;25866;52.420;10.640;2023-02-15T05:45:30;18.43;;;11.77;;
40150;SDS011;25866;52.420;10.640;2023-02-15T05:47:55;17.87;;;11.43;;
40150;SDS011;25866;52.420;10.640;2023-02-15T05:50:23;18.93;;;11.57;;
40150;SDS011;25866;52.420;10.640;2023-02-15T05:52:49;15.50;;;11.20;;
40150;SDS011;25866;52.420;10.640;2023-02-15T05:55:14;13.97;;;10.50;;
40150;SDS011;25866;52.420;10.640;2023-02-15T05:57:40;15.33;;;10.97;;
40150;SDS011;25866;52.420;10.640;2023-02-15T06:00:06;16.93;;;11.37;;
40150;SDS011;25866;52.420;10.640;2023-02-15T06:02:36;15.87;;;11.20;;
40150;SDS011;25866;52.420;10.640;2023-02-15T06:05:03;15.33;;;11.63;;
40150;SDS011;25866;52.420;10.640;2023-02-15T06:07:29;16.97;;;11.87;;
40150;SDS011;25866;52.420;10.640;2023-02-15T06:09:55;20.93;;;12.33;;
40150;SDS011;25866;52.420;10.640;2023-02-15T06:12:21;20.80;;;12.70;;
40150;SDS011;25866;52.420;10.640;2023-02-15T06:14:46;18.93;;;12.10;;
40150;SDS011;25866;52.420;10.640;2023-02-15T06:17:12;18.30;;;12.47;;
40150;SDS011;25866;52.420;10.640;2023-02-15T06:19:38;18.63;;;12.87;;
40150;SDS011;25866;52.420;10.640;2023-02-15T06:22:03;20.47;;;12.50;;
40150;SDS011;25866;52.420;10.640;2023-02-15T06:24:31;60.10;;;13.00;;
40150;SDS011;25866;52.420;10.640;2023-02-15T06:26:57;32.93;;;12.47;;
40150;SDS011;25866;52.420;10.640;2023-02-15T06:29:23;19.80;;;12.37;;
40150;SDS011;25866;52.420;10.640;2023-02-15T06:31:48;22.07;;;12.80;;
40150;SDS011;25866;52.420;10.640;2023-02-15T06:34:14;20.27;;;13.23;;
40150;SDS011;25866;52.420;10.640;2023-02-15T06:36:41;18.90;;;12.50;;
40150;SDS011;25866;52.420;10.640;2023-02-15T06:39:06;19.13;;;12.43;;
40150;SDS011;25866;52.420;10.640;2023-02-15T06:41:32;17.90;;;12.77;;
40150;SDS011;25866;52.420;10.640;2023-02-15T06:43:58;18.30;;;12.60;;
40150;SDS011;25866;52.420;10.640;2023-02-15T06:46:24;19.77;;;12.50;;
40150;SDS011;25866;52.420;10.640;2023-02-15T06:48:49;15.83;;;11.30;;
40150;SDS011;25866;52.420;10.640;2023-02-15T06:51:16;15.53;;;10.97;;
40150;SDS011;25866;52.420;10.640;2023-02-15T06:53:42;16.77;;;12.20;;
40150;SDS011;25866;52.420;10.640;2023-02-15T06:56:08;15.23;;;10.70;;
40150;SDS011;25866;52.420;10.640;2023-02-15T06:58:43;16.37;;;11.23;;
40150;SDS011;25866;52.420;10.640;2023-02-15T07:01:11;16.43;;;11.97;;
40150;SDS011;25866;52.420;10.640;2023-02-15T07:03:37;16.57;;;11.13;;
40150;SDS011;25866;52.420;10.640;2023-02-15T07:06:03;15.90;;;11.37;;
40150;SDS011;25866;52.420;10.640;2023-02-15T07:08:33;17.80;;;11.43;;
40150;SDS011;25866;52.420;10.640;2023-02-15T07:11:00;18.33;;;12.07;;
40150;SDS011;25866;52.420;10.640;2023-02-15T07:13:45;20.47;;;13.00;;
40150;SDS011;25866;52.420;10.640;2023-02-15T07:16:11;20.37;;;12.70;;
40150;SDS011;25866;52.420;10.640;2023-02-15T07:18:37;17.90;;;11.77;;
40150;SDS011;25866;52.420;10.640;2023-02-15T07:21:04;20.87;;;13.37;;
40150;SDS011;25866;52.420;10.640;2023-02-15T07:23:33;20.37;;;13.00;;
40150;SDS011;25866;52.420;10.640;2023-02-15T07:26:03;18.73;;;13.27;;
40150;SDS011;25866;52.420;10.640;2023-02-15T07:28:30;21.20;;;13.73;;
40150;SDS011;25866;52.420;10.640;2023-02-15T07:30:56;19.13;;;12.97;;
40150;SDS011;25866;52.420;10.640;2023-02-15T07:33:22;18.10;;;12.87;;
40150;SDS011;25866;52.420;10.640;2023-02-15T07:35:56;23.30;;;13.13;;
40150;SDS011;25866;52.420;10.640;2023-02-15T07:38:24;19.17;;;12.80;;
40150;SDS011;25866;52.420;10.640;2023-02-15T07:40:51;22.43;;;14.53;;
40150;SDS011;25866;52.420;10.640;2023-02-15T07:43:17;30.67;;;18.00;;
40150;SDS011;25866;52.420;10.640;2023-02-15T07:45:43;33.33;;;18.47;;
40150;SDS011;25866;52.420;10.640;2023-02-15T07:48:08;23.63;;;15.17;;
40150;SDS011;25866;52.420;10.640;2023-02-15T07:50:34;19.97;;;13.20;;
40150;SDS011;25866;52.420;10.640;2023-02-15T07:53:03;20.80;;;13.37;;
40150;SDS011;25866;52.420;10.640;2023-02-15T07:55:29;17.07;;;11.73;;
40150;SDS011;25866;52.420;10.640;2023-02-15T07:57:55;19.50;;;13.03;;
40150;SDS011;25866;52.420;10.640;2023-02-15T08:00:21;20.10;;;12.50;;
40150;SDS011;25866;52.420;10.640;2023-02-15T08:02:53;18.63;;;12.53;;
40150;SDS011;25866;52.420;10.640;2023-02-15T08:05:42;19.47;;;13.43;;
40150;SDS011;25866;52.420;10.640;2023-02-15T08:08:09;21.33;;;14.47;;
40150;SDS011;25866;52.420;10.640;2023-02-15T08:13:47;23.37;;;15.07;;
40150;SDS011;25866;52.420;10.640;2023-02-15T08:16:23;25.40;;;13.73;;
40150;SDS011;25866;52.420;10.640;2023-02-15T08:18:56;25.77;;;15.43;;
40150;SDS011;25866;52.420;10.640;2023-02-15T08:21:24;31.13;;;15.33;;
40150;SDS011;25866;52.420;10.640;2023-02-15T08:23:51;25.50;;;14.93;;
40150;SDS011;25866;52.420;10.640;2023-02-15T08:26:17;21.23;;;14.47;;
40150;SDS011;25866;52.420;10.640;2023-02-15T08:28:43;26.53;;;14.80;;
40150;SDS011;25866;52.420;10.640;2023-02-15T08:31:12;23.43;;;14.67;;
40150;SDS011;25866;52.420;10.640;2023-02-15T08:33:39;23.27;;;15.37;;
40150;SDS011;25866;52.420;10.640;2023-02-15T08:36:08;23.97;;;14.53;;
40150;SDS011;25866;52.420;10.640;2023-02-15T08:38:38;23.47;;;14.80;;
40150;SDS011;25866;52.420;10.640;2023-02-15T08:41:11;22.03;;;14.77;;
40150;SDS011;25866;52.420;10.640;2023-02-15T08:43:44;29.40;;;14.80;;
40150;SDS011;25866;52.420;10.640;2023-02-15T08:46:12;22.60;;;15.03;;
40150;SDS011;25866;52.420;10.640;2023-02-15T08:48:39;22.40;;;15.00;;
40150;SDS011;25866;52.420;10.640;2023-02-15T08:51:08;23.93;;;15.20;;
40150;SDS011;25866;52.420;10.640;2023-02-15T08:53:36;27.80;;;16.07;;
40150;SDS011;25866;52.420;10.640;2023-02-15T08:56:03;20.97;;;14.37;;
40150;SDS011;25866;52.420;10.640;2023-02-15T08:58:29;24.37;;;15.03;;
40150;SDS011;25866;52.420;10.640;2023-02-15T09:00:55;23.57;;;15.23;;
40150;SDS011;25866;52.420;10.640;2023-02-15T09:03:22;22.63;;;15.53;;
40150;SDS011;25866;52.420;10.640;2023-02-15T09:05:48;25.23;;;15.27;;
40150;SDS011;25866;52.420;10.640;2023-02-15T09:08:14;25.27;;;15.97;;
40150;SDS011;25866;52.420;10.640;2023-02-15T09:10:40;21.40;;;15.57;;
40150;SDS011;25866;52.420;10.640;2023-02-15T09:13:05;22.20;;;14.80;;
40150;SDS011;25866;52.420;10.640;2023-02-15T09:15:31;23.73;;;15.03;;
40150;SDS011;25866;52.420;10.640;2023-02-15T09:17:57;25.07;;;15.40;;
40150;SDS011;25866;52.420;10.640;2023-02-15T09:20:26;26.43;;;15.60;;
40150;SDS011;25866;52.420;10.640;2023-02-15T09:22:53;24.67;;;15.23;;
40150;SDS011;25866;52.420;10.640;2023-02-15T09:25:19;23.97;;;15.80;;
40150;SDS011;25866;52.420;10.640;2023-02-15T09:27:45;21.40;;;14.23;;
40150;SDS011;25866;52.420;10.640;2023-02-15T09:30:11;24.87;;;14.93;;
40150;SDS011;25866;52.420;10.640;2023-02-15T09:32:37;21.23;;;13.67;;
40150;SDS011;25866;52.420;10.640;2023-02-15T09:35:03;22.27;;;13.80;;
40150;SDS011;25866;52.420;10.640;2023-02-15T09:37:31;22.20;;;14.97;;
40150;SDS011;25866;52.420;10.640;2023-02-15T09:39:57;19.73;;;13.20;;
40150;SDS011;25866;52.420;10.640;2023-02-15T09:42:33;21.23;;;14.20;;
40150;SDS011;25866;52.420;10.640;2023-02-15T09:47:48;23.10;;;14.07;;
40150;SDS011;25866;52.420;10.640;2023-02-15T10:06:44;15.37;;;10.37;;
40150;SDS011;25866;52.420;10.640;2023-02-15T10:09:32;17.60;;;10.87;;
40150;SDS011;25866;52.420;10.640;2023-02-15T10:26:25;14.33;;;9.60;;
40150;SDS011;25866;52.420;10.640;2023-02-15T10:31:49;14.27;;;9.20;;
40150;SDS011;25866;52.420;10.640;2023-02-15T10:34:18;10.47;;;7.20;;
40150;SDS011;25866;52.420;10.640;2023-02-15T10:39:34;11.37;;;7.43;;
40150;SDS011;25866;52.420;10.640;2023-02-15T10:42:06;10.20;;;7.57;;
40150;SDS011;25866;52.420;10.640;2023-02-15T10:53:38;10.57;;;7.90;;
40150;SDS011;25866;52.420;10.640;2023-02-15T10:59:37;10.40;;;6.60;;
40150;SDS011;25866;52.420;10.640;2023-02-15T11:07:57;9.77;;;6.77;;
40150;SDS011;25866;52.420;10.640;2023-02-15T11:12:51;8.77;;;5.90;;
40150;SDS011;25866;52.420;10.640;2023-02-15T11:18:04;11.10;;;6.17;;
40150;SDS011;25866;52.420;10.640;2023-02-15T11:20:55;8.27;;;5.63;;
40150;SDS011;25866;52.420;10.640;2023-02-15T11:23:26;9.03;;;5.63;;
40150;SDS011;25866;52.420;10.640;2023-02-15T11:25:56;8.67;;;6.13;;
40150;SDS011;25866;52.420;10.640;2023-02-15T11:28:27;9.10;;;6.30;;
40150;SDS011;25866;52.420;10.640;2023-02-15T11:31:13;7.27;;;5.10;;
40150;SDS011;25866;52.420;10.640;2023-02-15T11:33:43;7.90;;;5.40;;
40150;SDS011;25866;52.420;10.640;2023-02-15T11:36:22;8.63;;;5.00;;
40150;SDS011;25866;52.420;10.640;2023-02-15T11:38:54;6.07;;;4.90;;
40150;SDS011;25866;52.420;10.640;2023-02-15T11:41:25;6.63;;;4.87;;
40150;SDS011;25866;52.420;10.640;2023-02-15T11:43:57;7.30;;;5.60;;
40150;SDS011;25866;52.420;10.640;2023-02-15T11:46:23;7.93;;;5.20;;
40150;SDS011;25866;52.420;10.640;2023-02-15T11:48:49;7.87;;;4.83;;
40150;SDS011;25866;52.420;10.640;2023-02-15T11:51:16;9.30;;;5.40;;
40150;SDS011;25866;52.420;10.640;2023-02-15T11:53:45;6.77;;;4.40;;
40150;SDS011;25866;52.420;10.640;2023-02-15T11:56:15;7.73;;;5.20;;
40150;SDS011;25866;52.420;10.640;2023-02-15T11:58:47;6.63;;;4.87;;
40150;SDS011;25866;52.420;10.640;2023-02-15T12:01:35;8.83;;;5.80;;
40150;SDS011;25866;52.420;10.640;2023-02-15T12:04:25;10.43;;;5.27;;
40150;SDS011;25866;52.420;10.640;2023-02-15T12:06:58;6.30;;;5.20;;
40150;SDS011;25866;52.420;10.640;2023-02-15T12:12:33;7.38;;;4.88;;
40150;SDS011;25866;52.420;10.640;2023-02-15T12:15:01;8.00;;;5.25;;
40150;SDS011;25866;52.420;10.640;2023-02-15T12:17:29;9.20;;;5.43;;
40150;SDS011;25866;52.420;10.640;2023-02-15T12:20:07;6.57;;;4.83;;
40150;SDS011;25866;52.420;10.640;2023-02-15T12:22:53;7.63;;;5.00;;
40150;SDS011;25866;52.420;10.640;2023-02-15T12:28:03;6.73;;;4.90;;
40150;SDS011;25866;52.420;10.640;2023-02-15T12:30:41;7.57;;;5.03;;
40150;SDS011;25866;52.420;10.640;2023-02-15T12:33:14;7.63;;;5.27;;
40150;SDS011;25866;52.420;10.640;2023-02-15T12:35:41;6.23;;;4.73;;
40150;SDS011;25866;52.420;10.640;2023-02-15T12:40:34;7.32;;;5.18;;
40150;SDS011;25866;52.420;10.640;2023-02-15T12:43:00;6.93;;;4.67;;
40150;SDS011;25866;52.420;10.640;2023-02-15T12:45:33;7.23;;;4.90;;
40150;SDS011;25866;52.420;10.640;2023-02-15T12:50:42;7.47;;;5.00;;
40150;SDS011;25866;52.420;10.640;2023-02-15T12:53:33;5.90;;;4.50;;
40150;SDS011;25866;52.420;10.640;2023-02-15T12:56:04;7.78;;;5.22;;
40150;SDS011;25866;52.420;10.640;2023-02-15T12:58:35;7.75;;;4.57;;
40150;SDS011;25866;52.420;10.640;2023-02-15T13:01:16;6.40;;;5.22;;
40150;SDS011;25866;52.420;10.640;2023-02-15T13:04:03;7.20;;;5.15;;
40150;SDS011;25866;52.420;10.640;2023-02-15T13:06:32;7.72;;;5.15;;
40150;SDS011;25866;52.420;10.640;2023-02-15T13:09:35;6.85;;;5.22;;
40150;SDS011;25866;52.420;10.640;2023-02-15T13:12:03;6.82;;;4.85;;
40150;SDS011;25866;52.420;10.640;2023-02-15T13:14:57;6.22;;;4.78;;
40150;SDS011;25866;52.420;10.640;2023-02-15T13:17:30;8.60;;;5.30;;
40150;SDS011;25866;52.420;10.640;2023-02-15T13:20:32;7.47;;;4.93;;
40150;SDS011;25866;52.420;10.640;2023-02-15T13:22:59;8.15;;;5.07;;
40150;SDS011;25866;52.420;10.640;2023-02-15T13:25:31;8.10;;;5.10;;
40150;SDS011;25866;52.420;10.640;2023-02-15T13:28:04;7.43;;;5.18;;
40150;SDS011;25866;52.420;10.640;2023-02-15T13:30:35;8.30;;;5.60;;
40150;SDS011;25866;52.420;10.640;2023-02-15T13:33:08;9.07;;;5.70;;
40150;SDS011;25866;52.420;10.640;2023-02-15T13:38:32;7.85;;;5.55;;
40150;SDS011;25866;52.420;10.640;2023-02-15T13:41:21;8.30;;;5.47;;
40150;SDS011;25866;52.420;10.640;2023-02-15T13:49:12;8.68;;;5.50;;
40150;SDS011;25866;52.420;10.640;2023-02-15T13:52:08;9.35;;;6.05;;
40150;SDS011;25866;52.420;10.640;2023-02-15T14:08:56;8.25;;;5.95;;
40150;SDS011;25866;52.420;10.640;2023-02-15T14:20:03;9.68;;;6.15;;
40150;SDS011;25866;52.420;10.640;2023-02-15T14:22:44;9.20;;;5.82;;
40150;SDS011;25866;52.420;10.640;2023-02-15T14:28:09;9.75;;;6.93;;
40150;SDS011;25866;52.420;10.640;2023-02-15T14:30:45;11.05;;;7.30;;
40150;SDS011;25866;52.420;10.640;2023-02-15T14:35:40;13.38;;;7.70;;
40150;SDS011;25866;52.420;10.640;2023-02-15T14:41:22;8.80;;;6.05;;
40150;SDS011;25866;52.420;10.640;2023-02-15T14:44:27;8.73;;;6.72;;
40150;SDS011;25866;52.420;10.640;2023-02-15T14:49:37;10.63;;;7.75;;
40150;SDS011;25866;52.420;10.640;2023-02-15T14:52:04;11.88;;;7.30;;
40150;SDS011;25866;52.420;10.640;2023-02-15T14:59:36;9.63;;;6.72;;
40150;SDS011;25866;52.420;10.640;2023-02-15T15:02:40;11.95;;;6.93;;
40150;SDS011;25866;52.420;10.640;2023-02-15T15:08:25;11.65;;;7.00;;
40150;SDS011;25866;52.420;10.640;2023-02-15T15:13:57;13.40;;;7.55;;
40150;SDS011;25866;52.420;10.640;2023-02-15T15:22:19;12.00;;;6.53;;
40150;SDS011;25866;52.420;10.640;2023-02-15T15:27:59;12.32;;;6.50;;
40150;SDS011;25866;52.420;10.640;2023-02-15T15:41:16;10.43;;;6.37;;
40150;SDS011;25866;52.420;10.640;2023-02-15T15:46:49;9.77;;;6.07;;
40150;SDS011;25866;52.420;10.640;2023-02-15T15:49:38;11.53;;;6.43;;
40150;SDS011;25866;52.420;10.640;2023-02-15T15:52:11;11.23;;;6.63;;
40150;SDS011;25866;52.420;10.640;2023-02-15T15:54:40;9.37;;;6.33;;
40150;SDS011;25866;52.420;10.640;2023-02-15T15:57:11;11.30;;;6.80;;
40150;SDS011;25866;52.420;10.640;2023-02-15T16:00:00;8.83;;;6.07;;
40150;SDS011;25866;52.420;10.640;2023-02-15T16:02:27;8.80;;;5.73;;
40150;SDS011;25866;52.420;10.640;2023-02-15T16:04:53;8.13;;;5.77;;
40150;SDS011;25866;52.420;10.640;2023-02-15T16:09:54;10.43;;;6.87;;
40150;SDS011;25866;52.420;10.640;2023-02-15T16:12:20;10.93;;;7.00;;
40150;SDS011;25866;52.420;10.640;2023-02-15T16:14:46;9.50;;;7.07;;
40150;SDS011;25866;52.420;10.640;2023-02-15T16:17:34;10.30;;;7.30;;
40150;SDS011;25866;52.420;10.640;2023-02-15T16:20:22;14.00;;;8.07;;
40150;SDS011;25866;52.420;10.640;2023-02-15T16:22:58;10.90;;;8.20;;
40150;SDS011;25866;52.420;10.640;2023-02-15T16:28:20;14.33;;;7.60;;
40150;SDS011;25866;52.420;10.640;2023-02-15T16:30:54;12.07;;;8.37;;
40150;SDS011;25866;52.420;10.640;2023-02-15T16:33:39;11.43;;;8.20;;
40150;SDS011;25866;52.420;10.640;2023-02-15T16:36:10;14.83;;;8.47;;
40150;SDS011;25866;52.420;10.640;2023-02-15T16:41:29;11.43;;;8.00;;
40150;SDS011;25866;52.420;10.640;2023-02-15T16:43:56;13.17;;;8.10;;
40150;SDS011;25866;52.420;10.640;2023-02-15T16:46:27;11.50;;;8.47;;
40150;SDS011;25866;52.420;10.640;2023-02-15T16:48:59;12.27;;;8.80;;
40150;SDS011;25866;52.420;10.640;2023-02-15T16:51:29;13.40;;;8.70;;
40150;SDS011;25866;52.420;10.640;2023-02-15T16:53:57;12.17;;;8.80;;
40150;SDS011;25866;52.420;10.640;2023-02-15T16:56:30;13.43;;;8.80;;
40150;SDS011;25866;52.420;10.640;2023-02-15T16:58:57;12.93;;;8.80;;
40150;SDS011;25866;52.420;10.640;2023-02-15T17:01:25;14.70;;;8.20;;
40150;SDS011;25866;52.420;10.640;2023-02-15T17:04:25;12.20;;;8.60;;
40150;SDS011;25866;52.420;10.640;2023-02-15T17:07:36;12.10;;;8.17;;
40150;SDS011;25866;52.420;10.640;2023-02-15T17:09:52;11.97;;;8.33;;
40150;SDS011;25866;52.420;10.640;2023-02-15T17:15:04;13.40;;;9.40;;
40150;SDS011;25866;52.420;10.640;2023-02-15T17:17:30;14.07;;;8.10;;
40150;SDS011;25866;52.420;10.640;2023-02-15T17:19:56;14.53;;;8.73;;
40150;SDS011;25866;52.420;10.640;2023-02-15T17:22:23;14.30;;;9.13;;
40150;SDS011;25866;52.420;10.640;2023-02-15T17:25:01;13.43;;;9.37;;
40150;SDS011;25866;52.420;10.640;2023-02-15T17:27:29;12.70;;;8.70;;
40150;SDS011;25866;52.420;10.640;2023-02-15T17:30:02;13.03;;;8.87;;
40150;SDS011;25866;52.420;10.640;2023-02-15T17:32:37;17.20;;;10.57;;
40150;SDS011;25866;52.420;10.640;2023-02-15T17:35:20;14.50;;;9.33;;
40150;SDS011;25866;52.420;10.640;2023-02-15T17:37:50;14.53;;;10.57;;
40150;SDS011;25866;52.420;10.640;2023-02-15T17:40:25;15.83;;;9.50;;
40150;SDS011;25866;52.420;10.640;2023-02-15T17:42:53;14.37;;;9.40;;
40150;SDS011;25866;52.420;10.640;2023-02-15T17:45:20;13.53;;;9.40;;
40150;SDS011;25866;52.420;10.640;2023-02-15T17:47:47;15.60;;;9.47;;
40150;SDS011;25866;52.420;10.640;2023-02-15T17:50:21;13.67;;;9.10;;
40150;SDS011;25866;52.420;10.640;2023-02-15T17:52:48;17.37;;;9.73;;
40150;SDS011;25866;52.420;10.640;2023-02-15T17:55:17;12.53;;;8.37;;